Time;durP1;ratioP1;P1;durP2;ratioP2;P2;SDS_P1;SDS_P2;PMS_P1;PMS_P2;Temp;Humidity;BMP_temperature;BMP_pressure;BME280_temperature;BME280_humidity;BME280_pressure;Samples;Min_cycle;Max_cycle;Signal;HPM_P1;HPM_P2
2023/05/10 00:04:48;;;;;;;13.40;5.60;;;;;;;8.72;50.08;98877.08;436489;1253;99531;-44
2023/05/10 00:14:52;;;;;;;8.90;5.40;;;;;;;8.57;50.46;98867.14;436379;1250;107172;-41
2023/05/10 00:24:56;;;;;;;8.40;5.70;;;;;;;8.45;50.84;98864.80;436427;1253;99265;-42
2023/05/10 00:35:00;;;;;;;8.40;5.30;;;;;;;8.33;51.09;98863.10;436364;1253;97965;-41
2023/05/10 00:45:05;;;;;;;7.70;4.70;;;;;;;8.17;51.36;98856.73;436561;1247;107726;-42
2023/05/10 00:55:11;;;;;;;8.60;5.50;;;;;;;8.08;51.80;98855.31;436497;1253;99512;-42
2023/05/10 01:05:15;;;;;;;10.50;5.30;;;;;;;7.90;52.15;98852.81;436561;1247;111473;-42
2023/05/10 01:15:24;;;;;;;10.90;5.40;;;;;;;7.72;52.49;98844.59;437546;1245;108673;-43
2023/05/10 01:25:51;;;;;;;15.30;5.80;;;;;;;7.51;52.92;98841.23;438236;1249;99202;-44
2023/05/10 01:35:55;;;;;;;16.10;6.50;;;;;;;7.26;53.25;98832.98;438086;1250;110836;-42
2023/05/10 01:45:59;;;;;;;13.40;6.90;;;;;;;7.13;53.86;98834.94;438259;1245;97991;-42
2023/05/10 01:56:03;;;;;;;11.70;6.90;;;;;;;7.11;54.24;98826.52;438048;1245;97991;-45
2023/05/10 02:06:06;;;;;;;19.50;8.80;;;;;;;6.92;54.53;98817.14;438262;1250;110562;-44
2023/05/10 02:16:12;;;;;;;13.30;7.00;;;;;;;6.79;54.77;98811.17;438245;1245;97999;-43
2023/05/10 02:26:17;;;;;;;11.60;6.90;;;;;;;6.62;55.16;98803.55;438152;1247;98036;-43
2023/05/10 02:36:21;;;;;;;12.30;6.40;;;;;;;6.54;55.55;98801.27;438272;1244;110502;-42
2023/05/10 02:46:25;;;;;;;12.20;6.40;;;;;;;6.46;55.83;98800.45;438186;1250;98002;-43
2023/05/10 02:56:29;;;;;;;16.00;7.90;;;;;;;6.37;56.15;98802.08;438056;1244;99223;-41
2023/05/10 03:06:33;;;;;;;14.20;7.00;;;;;;;6.24;56.34;98797.85;438193;1245;110627;-42
2023/05/10 03:16:38;;;;;;;14.00;7.30;;;;;;;6.14;56.73;98798.79;438062;1249;99236;-42
2023/05/10 03:26:45;;;;;;;15.30;6.80;;;;;;;6.09;56.80;98793.59;438153;1247;99231;-42
2023/05/10 03:36:49;;;;;;;18.10;6.90;;;;;;;6.65;57.25;98793.28;438163;1250;110762;-41
2023/05/10 03:46:53;;;;;;;18.70;7.80;;;;;;;8.12;56.80;98791.17;437775;1247;417680;-43
2023/05/10 03:56:57;;;;;;;18.40;7.70;;;;;;;10.16;55.93;98782.31;438122;1244;97886;-42
2023/05/10 04:07:00;;;;;;;16.80;7.10;;;;;;;11.89;54.50;98779.54;438208;1249;107995;-43
2023/05/10 04:17:05;;;;;;;13.90;6.20;;;;;;;13.39;53.17;98770.81;438075;1249;99259;-44
2023/05/10 04:27:09;;;;;;;13.90;7.10;;;;;;;14.51;51.57;98766.41;438285;1244;112977;-43
2023/05/10 04:37:13;;;;;;;17.30;7.40;;;;;;;14.87;50.69;98770.02;438120;1251;107876;-43
2023/05/10 04:47:17;;;;;;;11.40;7.00;;;;;;;15.12;49.61;98772.27;438130;1244;99141;-42
2023/05/10 04:57:22;;;;;;;12.70;6.90;;;;;;;14.89;48.67;98770.50;438217;1251;107234;-43
2023/05/10 05:07:26;;;;;;;11.90;6.60;;;;;;;15.47;48.61;98766.86;438472;1245;98475;-44
2023/05/10 05:27:35;;;;;;;16.10;6.10;;;;;;;15.41;47.08;98769.27;438281;1244;107620;-43
2023/05/10 05:37:39;;;;;;;9.20;5.40;;;;;;;15.59;46.09;98773.02;438071;1244;98271;-43
2023/05/10 05:47:43;;;;;;;16.70;7.70;;;;;;;15.66;45.63;98766.09;438240;1247;106953;-40
2023/05/10 05:57:48;;;;;;;17.30;7.60;;;;;;;15.65;45.56;98765.15;438258;1244;99215;-42
2023/05/10 06:07:51;;;;;;;16.20;7.70;;;;;;;14.91;44.68;98774.47;438279;1249;112366;-42
2023/05/10 06:17:55;;;;;;;14.70;8.20;;;;;;;14.36;45.48;98781.15;437890;1250;108314;-42
2023/05/10 06:27:58;;;;;;;12.10;6.60;;;;;;;14.43;45.80;98790.61;438009;1247;98419;-41
2023/05/10 06:38:02;;;;;;;14.60;7.70;;;;;;;14.85;46.12;98785.73;438050;1250;107139;-40
2023/05/10 06:48:05;;;;;;;13.30;6.20;;;;;;;15.89;46.09;98774.83;438033;1250;97909;-42
2023/05/10 06:58:10;;;;;;;12.70;6.40;;;;;;;16.41;45.86;98769.92;438017;1250;110020;-43
2023/05/10 07:08:14;;;;;;;15.60;6.50;;;;;;;16.25;45.04;98771.32;438209;1244;108375;-41
2023/05/10 07:18:18;;;;;;;12.10;5.30;;;;;;;15.74;45.25;98773.42;438050;1250;99870;-41
2023/05/10 07:28:23;;;;;;;10.00;6.60;;;;;;;15.68;45.78;98771.20;438150;1250;108386;-43
2023/05/10 07:38:27;;;;;;;8.90;5.40;;;;;;;16.16;45.69;98765.20;438056;1250;99221;-41
2023/05/10 07:48:32;;;;;;;8.80;5.30;;;;;;;16.37;45.17;98766.87;438074;1250;111271;-43
2023/05/10 07:58:35;;;;;;;8.70;6.10;;;;;;;16.57;45.22;98757.73;438024;1248;107611;-42
2023/05/10 08:08:40;;;;;;;12.10;5.20;;;;;;;16.67;44.51;98750.91;438269;1250;98803;-43
2023/05/10 08:28:49;;;;;;;5.30;3.70;;;;;;;16.96;44.18;98747.71;438195;1247;98062;-41
2023/05/10 08:38:54;;;;;;;4.50;4.00;;;;;;;16.98;42.70;98749.39;438112;1244;111862;-48
2023/05/10 08:49:02;;;;;;;10.50;3.80;;;;;;;16.96;41.85;98747.52;438131;1244;107822;-42
2023/05/10 08:59:07;;;;;;;6.90;3.60;;;;;;;16.91;41.24;98742.55;438034;1244;99224;-45
2023/05/10 09:09:11;;;;;;;4.80;3.10;;;;;;;16.88;40.38;98750.94;438039;1258;106755;-42
2023/05/10 09:19:15;;;;;;;9.00;3.30;;;;;;;17.35;40.87;98746.83;438140;1245;99519;-44
2023/05/10 09:29:19;;;;;;;8.40;3.40;;;;;;;17.43;40.00;98739.33;438001;1252;111046;-43
2023/05/10 09:39:30;;;;;;;5.10;3.10;;;;;;;17.61;39.28;98742.65;438134;1250;108619;-41
2023/05/10 09:49:34;;;;;;;4.50;2.30;;;;;;;17.62;38.73;98743.83;437974;1250;99205;-45
2023/05/10 09:59:43;;;;;;;7.70;3.10;;;;;;;17.81;38.84;98743.57;438082;1250;108442;-42
2023/05/10 10:09:48;;;;;;;11.90;3.40;;;;;;;17.62;38.05;98733.02;438275;1244;99686;-43
2023/05/10 10:19:52;;;;;;;5.10;2.60;;;;;;;17.53;37.95;98724.70;438083;1244;110709;-43
2023/05/10 10:40:23;;;;;;;6.90;2.60;;;;;;;18.09;37.65;98716.78;438160;1244;98000;-41
2023/05/10 10:50:27;;;;;;;8.50;3.50;;;;;;;18.10;37.52;98714.52;438217;1244;107075;-43
2023/05/10 11:00:32;;;;;;;5.10;2.70;;;;;;;18.55;37.78;98708.94;438295;1245;99220;-42
2023/05/10 11:10:37;;;;;;;3.60;2.60;;;;;;;18.39;37.62;98705.94;438154;1249;109924;-42
2023/05/10 11:20:41;;;;;;;4.00;2.80;;;;;;;18.18;37.56;98709.28;438269;1244;106759;-43
2023/05/10 11:30:46;;;;;;;5.20;3.10;;;;;;;18.28;38.33;98699.64;438130;1244;98516;-43
2023/05/10 12:01:00;;;;;;;4.00;2.60;;;;;;;18.79;37.68;98690.39;438123;1250;111059;-42
2023/05/10 12:11:07;;;;;;;4.90;3.10;;;;;;;19.13;37.33;98688.84;438077;1244;106543;-45
2023/05/10 12:21:12;;;;;;;7.00;2.80;;;;;;;18.96;36.76;98694.45;438165;1244;99202;-42
2023/05/10 12:31:16;;;;;;;10.80;3.60;;;;;;;18.57;37.35;98688.95;437963;1244;107255;-42
2023/05/10 12:41:20;;;;;;;6.30;2.90;;;;;;;18.48;37.19;98683.06;438188;1250;98826;-42
2023/05/10 12:51:24;;;;;;;5.10;3.30;;;;;;;18.60;36.74;98674.84;438085;1245;112289;-43
2023/05/10 13:01:29;;;;;;;6.70;2.80;;;;;;;18.53;36.92;98663.81;438004;1245;107208;-42
2023/05/10 13:11:33;;;;;;;3.00;2.20;;;;;;;18.66;36.71;98654.98;438215;1244;97972;-43
2023/05/10 13:21:36;;;;;;;5.60;2.50;;;;;;;18.72;36.71;98650.86;438065;1245;107647;-45
2023/05/10 13:31:40;;;;;;;4.30;2.40;;;;;;;18.68;36.13;98642.27;438041;1244;99076;-41
2023/05/10 13:41:44;;;;;;;4.30;2.90;;;;;;;18.51;36.31;98635.00;438159;1245;111433;-42
2023/05/10 13:51:48;;;;;;;4.20;3.00;;;;;;;18.48;35.83;98628.88;438030;1250;108846;-44
2023/05/10 14:01:51;;;;;;;9.90;3.40;;;;;;;18.56;35.56;98614.04;438123;1245;97994;-42
2023/05/10 14:11:55;;;;;;;5.40;2.90;;;;;;;18.54;35.59;98618.23;437965;1250;109209;-42
2023/05/10 14:21:59;;;;;;;7.90;2.40;;;;;;;18.22;35.47;98610.98;438035;1259;99307;-41
2023/05/10 14:32:03;;;;;;;2.70;2.40;;;;;;;18.15;35.51;98608.05;438004;1250;110743;-42
2023/05/10 14:42:07;;;;;;;4.40;2.60;;;;;;;18.24;35.50;98596.15;438017;1250;107516;-43
2023/05/10 15:02:16;;;;;;;3.60;2.40;;;;;;;18.32;35.61;98597.52;438126;1258;107701;-42
2023/05/10 15:12:21;;;;;;;3.10;2.10;;;;;;;18.18;35.55;98596.67;438049;1250;99209;-44
2023/05/10 15:22:24;;;;;;;5.10;2.70;;;;;;;18.14;35.47;98595.59;437909;1250;111743;-42
2023/05/10 15:42:32;;;;;;;4.50;2.40;;;;;;;18.20;36.02;98595.13;437695;1244;415273;-43
2023/05/10 15:52:36;;;;;;;4.20;2.40;;;;;;;18.08;36.02;98592.73;438078;1249;109444;-44
2023/05/10 16:02:41;;;;;;;6.20;2.70;;;;;;;17.96;35.95;98598.08;437900;1245;97991;-43
2023/05/10 16:12:45;;;;;;;3.50;3.00;;;;;;;17.92;36.37;98593.49;438048;1250;111201;-42
2023/05/10 16:22:50;;;;;;;3.70;2.50;;;;;;;17.83;36.63;98597.20;438101;1250;107671;-42
2023/05/10 16:32:54;;;;;;;4.50;2.40;;;;;;;17.68;36.73;98599.36;438095;1250;97998;-44
2023/05/10 16:42:57;;;;;;;3.20;2.60;;;;;;;17.48;36.81;98600.68;438237;1245;105589;-44
2023/05/10 17:03:05;;;;;;;5.40;2.60;;;;;;;17.13;37.43;98618.36;437998;1250;112023;-44
2023/05/10 17:13:09;;;;;;;3.70;3.00;;;;;;;16.99;37.64;98627.89;438123;1258;108099;-42
2023/05/10 17:23:13;;;;;;;3.50;2.90;;;;;;;16.77;37.70;98638.15;438178;1248;99212;-41
2023/05/10 17:33:17;;;;;;;6.30;3.30;;;;;;;16.51;38.04;98644.28;438112;1252;108180;-43
2023/05/10 17:43:24;;;;;;;12.90;3.20;;;;;;;16.26;38.41;98651.54;438138;1245;98010;-44
2023/05/10 17:53:28;;;;;;;9.90;5.70;;;;;;;15.96;38.94;98657.04;437975;1245;111002;-43
2023/05/10 18:03:34;;;;;;;6.20;3.60;;;;;;;15.63;39.37;98667.65;438186;1249;108493;-42
2023/05/10 18:13:38;;;;;;;6.80;3.90;;;;;;;15.27;40.00;98681.12;437875;1251;98036;-42
2023/05/10 18:23:42;;;;;;;5.80;3.60;;;;;;;14.94;40.63;98690.71;438066;1250;108320;-43
2023/05/10 18:33:46;;;;;;;6.20;4.20;;;;;;;14.61;41.17;98699.11;438029;1245;99169;-42
2023/05/10 18:43:49;;;;;;;6.90;4.40;;;;;;;14.33;41.58;98709.45;438161;1250;110519;-42
2023/05/10 18:53:57;;;;;;;8.40;4.40;;;;;;;14.06;41.99;98722.80;437999;1258;108831;-43
2023/05/10 19:04:01;;;;;;;6.30;3.40;;;;;;;13.83;42.30;98730.89;438866;1244;98808;-42
2023/05/10 19:14:05;;;;;;;7.20;4.40;;;;;;;13.67;42.85;98739.98;439891;1250;106202;-41
2023/05/10 19:24:09;;;;;;;9.50;5.30;;;;;;;13.51;43.06;98756.32;438720;1245;99227;-44
2023/05/10 19:34:13;;;;;;;12.30;4.60;;;;;;;13.32;43.28;98756.70;438135;1250;111260;-42
2023/05/10 19:54:20;;;;;;;8.00;4.30;;;;;;;13.02;43.70;98760.52;438222;1250;98868;-43
2023/05/10 20:04:25;;;;;;;13.80;5.00;;;;;;;12.87;43.89;98764.69;438000;1249;106816;-42
2023/05/10 20:14:29;;;;;;;8.30;4.90;;;;;;;12.74;44.02;98764.42;438123;1250;99208;-44
2023/05/10 20:24:33;;;;;;;7.60;4.00;;;;;;;12.58;44.16;98766.91;438082;1247;112943;-42
2023/05/10 20:34:37;;;;;;;5.60;4.10;;;;;;;12.39;44.20;98764.77;438111;1250;107678;-43
2023/05/10 20:44:42;;;;;;;9.20;4.60;;;;;;;12.25;44.38;98760.84;437963;1245;99153;-42
2023/05/10 20:54:46;;;;;;;9.10;5.60;;;;;;;12.05;44.49;98766.36;438247;1251;107749;-42
2023/05/10 21:04:49;;;;;;;13.00;5.70;;;;;;;11.87;44.66;98761.66;438046;1244;99234;-42
2023/05/10 21:14:53;;;;;;;15.10;6.20;;;;;;;11.76;44.83;98760.17;438192;1244;113102;-43
2023/05/10 21:24:57;;;;;;;17.60;7.30;;;;;;;11.65;44.97;98759.59;438024;1244;109380;-42
2023/05/10 21:35:01;;;;;;;18.70;7.50;;;;;;;11.54;45.07;98756.80;438330;1247;99244;-43
2023/05/10 21:45:04;;;;;;;14.90;7.20;;;;;;;11.42;45.24;98759.94;438051;1259;106924;-42
2023/05/10 21:55:09;;;;;;;16.40;7.60;;;;;;;11.29;45.41;98758.33;438151;1244;99231;-41
2023/05/10 22:05:14;;;;;;;17.40;6.10;;;;;;;11.13;45.62;98759.34;438033;1251;110488;-40
2023/05/10 22:15:17;;;;;;;13.00;6.60;;;;;;;10.98;45.89;98756.30;438036;1251;107317;-42
2023/05/10 22:25:22;;;;;;;18.40;5.70;;;;;;;10.81;46.14;98760.27;438207;1245;99234;-42
2023/05/10 22:35:25;;;;;;;12.70;5.80;;;;;;;10.71;46.49;98763.16;437959;1247;106716;-44
2023/05/10 22:45:29;;;;;;;15.60;6.90;;;;;;;10.57;46.68;98767.76;438125;1244;97954;-42
2023/05/10 22:55:35;;;;;;;9.60;5.70;;;;;;;10.46;47.01;98768.93;438084;1245;110809;-42
2023/05/10 23:05:38;;;;;;;14.50;6.60;;;;;;;10.27;47.22;98780.94;438005;1250;107730;-43
2023/05/10 23:15:42;;;;;;;10.30;6.40;;;;;;;9.99;47.66;98779.41;438250;1244;98734;-43
2023/05/10 23:25:46;;;;;;;9.90;5.60;;;;;;;9.74;48.03;98774.52;438182;1244;108191;-42
2023/05/10 23:35:50;;;;;;;16.30;6.00;;;;;;;9.67;48.52;98772.41;438037;1249;99880;-43
2023/05/10 23:55:57;;;;;;;9.40;6.30;;;;;;;9.46;49.17;98788.27;438121;1244;108446;-43
